Station Historical Data
Daily Summary for June 2, 2017 Units:  Both    English   Metric
« Previous Day
Next Day »
Daily Weekly Monthly Yearly Custom
  High: Low: Average:
Temperature: 67.2 °F /  19.6 °C 45.5 °F /  7.5 °C 57.6 °F /  14.2 °C
Dew Point: 49.7 °F /  9.8 °C 38.8 °F /  3.8 °C 44.8 °F /  7.1 °C
Humidity: 88% 38% 65%
Wind Speed: 14.0mph /  22.5km/h - 3.5mph /  5.6km/h
Wind Gust: 22.0mph /  35.4km/h - -
Wind- - West
Pressure: 30.06 in /  1017.8 hPa 29.95 in /  1014.1 hPa -
Precipitation: 0.00 in /  0 mm    
Historical Graphs
 
 
Tabular Data for June 2, 2017
Time Temperature Dew Point Pressure Wind Wind Speed Wind Gust Humidity Rainfall Rate (Hourly)
00:04 54.2 °F /  12.3 °C 47.5 °F /  8.6 °C 29.98in /  1015.1hPa Calm     78% 0.00in /  0mm
00:09 54.1 °F /  12.3 °C 47.7 °F /  8.7 °C 29.98in /  1015.1hPa Calm     79% 0.00in /  0mm
00:14 53.6 °F /  12 °C 47.2 °F /  8.4 °C 29.98in /  1015.1hPa Calm     79% 0.00in /  0mm
00:19 53.2 °F /  11.8 °C 47.2 °F /  8.4 °C 29.98in /  1015.1hPa Calm     80% 0.00in /  0mm
00:24 52.9 °F /  11.6 °C 46.9 °F /  8.3 °C 29.98in /  1015.1hPa Calm     80% 0.00in /  0mm
00:29 52.4 °F /  11.3 °C 46.7 °F /  8.2 °C 29.98in /  1015.1hPa Calm     81% 0.00in /  0mm
00:34 52.1 °F /  11.2 °C 46.4 °F /  8 °C 29.98in /  1015.1hPa Calm     81% 0.00in /  0mm
00:39 52.3 °F /  11.3 °C 46.6 °F /  8.1 °C 29.97in /  1014.8hPa Calm     81% 0.00in /  0mm
00:44 52.3 °F /  11.3 °C 47.0 °F /  8.3 °C 29.97in /  1014.8hPa Calm     82% 0.00in /  0mm
00:49 52.1 °F /  11.2 °C 46.4 °F /  8 °C 29.97in /  1014.8hPa Calm     81% 0.00in /  0mm
00:54 52.0 °F /  11.1 °C 46.7 °F /  8.2 °C 29.97in /  1014.8hPa Calm     82% 0.00in /  0mm
00:59 51.7 °F /  10.9 °C 46.1 °F /  7.8 °C 29.97in /  1014.8hPa Calm     81% 0.00in /  0mm
01:04 51.4 °F /  10.8 °C 46.1 °F /  7.8 °C 29.97in /  1014.8hPa Calm     82% 0.00in /  0mm
01:09 50.9 °F /  10.5 °C 45.9 °F /  7.7 °C 29.97in /  1014.8hPa Calm     83% 0.00in /  0mm
01:14 50.7 °F /  10.4 °C 46.0 °F /  7.8 °C 29.97in /  1014.8hPa Calm     84% 0.00in /  0mm
01:19 50.5 °F /  10.3 °C 45.8 °F /  7.7 °C 29.97in /  1014.8hPa Calm     84% 0.00in /  0mm
01:24 50.5 °F /  10.3 °C 46.2 °F /  7.9 °C 29.97in /  1014.8hPa Calm     85% 0.00in /  0mm
01:29 50.0 °F /  10 °C 45.7 °F /  7.6 °C 29.97in /  1014.8hPa Calm     85% 0.00in /  0mm
01:34 49.9 °F /  9.9 °C 45.9 °F /  7.7 °C 29.97in /  1014.8hPa Calm     86% 0.00in /  0mm
01:39 49.9 °F /  9.9 °C 45.9 °F /  7.7 °C 29.97in /  1014.8hPa Calm     86% 0.00in /  0mm
01:44 50.2 °F /  10.1 °C 46.2 °F /  7.9 °C 29.97in /  1014.8hPa Calm     86% 0.00in /  0mm
01:49 50.4 °F /  10.2 °C 46.4 °F /  8 °C 29.97in /  1014.8hPa Calm     86% 0.00in /  0mm
01:54 50.2 °F /  10.1 °C 46.2 °F /  7.9 °C 29.97in /  1014.8hPa Calm     86% 0.00in /  0mm
01:59 50.0 °F /  10 °C 46.0 °F /  7.8 °C 29.97in /  1014.8hPa Calm     86% 0.00in /  0mm
02:04 49.8 °F /  9.9 °C 45.8 °F /  7.7 °C 29.96in /  1014.4hPa Calm   1.0mph /  1.6km/h 86% 0.00in /  0mm
02:09 49.5 °F /  9.7 °C 45.5 °F /  7.5 °C 29.96in /  1014.4hPa Calm     86% 0.00in /  0mm
02:14 49.2 °F /  9.6 °C 45.2 °F /  7.3 °C 29.96in /  1014.4hPa Calm     86% 0.00in /  0mm
02:19 49.1 °F /  9.5 °C 45.4 °F /  7.4 °C 29.96in /  1014.4hPa Calm     87% 0.00in /  0mm
02:24 49.2 °F /  9.6 °C 45.2 °F /  7.3 °C 29.96in /  1014.4hPa Calm   2.0mph /  3.2km/h 86% 0.00in /  0mm
02:29 49.4 °F /  9.7 °C 45.1 °F /  7.3 °C 29.96in /  1014.4hPa Calm   2.0mph /  3.2km/h 85% 0.00in /  0mm
02:34 49.7 °F /  9.8 °C 45.1 °F /  7.3 °C 29.96in /  1014.4hPa WSW 1.0mph /  1.6km/h 4.0mph /  6.4km/h 84% 0.00in /  0mm
02:39 49.8 °F /  9.9 °C 44.8 °F /  7.1 °C 29.96in /  1014.4hPa WSW 1.0mph /  1.6km/h 4.0mph /  6.4km/h 83% 0.00in /  0mm
02:44 49.7 °F /  9.8 °C 44.7 °F /  7.1 °C 29.96in /  1014.4hPa Calm   3.0mph /  4.8km/h 83% 0.00in /  0mm
02:49 49.6 °F /  9.8 °C 44.6 °F /  7 °C 29.96in /  1014.4hPa SW 1.0mph /  1.6km/h 3.0mph /  4.8km/h 83% 0.00in /  0mm
02:54 49.4 °F /  9.7 °C 44.5 °F /  6.9 °C 29.96in /  1014.4hPa Calm   2.0mph /  3.2km/h 83% 0.00in /  0mm
02:59 49.3 °F /  9.6 °C 44.4 °F /  6.9 °C 29.96in /  1014.4hPa Calm   1.0mph /  1.6km/h 83% 0.00in /  0mm
03:04 49.0 °F /  9.4 °C 44.1 °F /  6.7 °C 29.96in /  1014.4hPa Calm     83% 0.00in /  0mm
03:09 48.8 °F /  9.3 °C 43.9 °F /  6.6 °C 29.95in /  1014.1hPa Calm     83% 0.00in /  0mm
03:14 48.5 °F /  9.2 °C 43.9 °F /  6.6 °C 29.96in /  1014.4hPa Calm     84% 0.00in /  0mm
03:19 48.3 °F /  9.1 °C 43.7 °F /  6.5 °C 29.96in /  1014.4hPa Calm     84% 0.00in /  0mm
03:24 47.9 °F /  8.8 °C 43.3 °F /  6.3 °C 29.96in /  1014.4hPa Calm     84% 0.00in /  0mm
03:29 47.9 °F /  8.8 °C 43.6 °F /  6.4 °C 29.96in /  1014.4hPa Calm     85% 0.00in /  0mm
03:34 48.0 °F /  8.9 °C 43.7 °F /  6.5 °C 29.96in /  1014.4hPa Calm     85% 0.00in /  0mm
03:39 47.7 °F /  8.7 °C 43.4 °F /  6.3 °C 29.96in /  1014.4hPa Calm     85% 0.00in /  0mm
03:44 47.5 °F /  8.6 °C 43.2 °F /  6.2 °C 29.95in /  1014.1hPa Calm     85% 0.00in /  0mm
03:49 47.4 °F /  8.6 °C 43.1 °F /  6.2 °C 29.96in /  1014.4hPa Calm     85% 0.00in /  0mm
03:54 47.3 °F /  8.5 °C 43.0 °F /  6.1 °C 29.96in /  1014.4hPa Calm     85% 0.00in /  0mm
03:59 47.2 °F /  8.4 °C 42.9 °F /  6.1 °C 29.96in /  1014.4hPa Calm     85% 0.00in /  0mm
04:04 47.1 °F /  8.4 °C 43.1 °F /  6.2 °C 29.96in /  1014.4hPa Calm     86% 0.00in /  0mm
04:09 46.9 °F /  8.3 °C 42.9 °F /  6.1 °C 29.96in /  1014.4hPa Calm     86% 0.00in /  0mm
04:14 46.9 °F /  8.3 °C 42.9 °F /  6.1 °C 29.95in /  1014.1hPa Calm   2.0mph /  3.2km/h 86% 0.00in /  0mm
04:19 46.9 °F /  8.3 °C 42.9 °F /  6.1 °C 29.96in /  1014.4hPa Calm   1.0mph /  1.6km/h 86% 0.00in /  0mm
04:24 46.8 °F /  8.2 °C 42.8 °F /  6 °C 29.95in /  1014.1hPa Calm   1.0mph /  1.6km/h 86% 0.00in /  0mm
04:29 46.6 °F /  8.1 °C 42.6 °F /  5.9 °C 29.95in /  1014.1hPa Calm     86% 0.00in /  0mm
04:34 46.5 °F /  8.1 °C 42.5 °F /  5.8 °C 29.95in /  1014.1hPa Calm     86% 0.00in /  0mm
04:39 46.6 °F /  8.1 °C 42.6 °F /  5.9 °C 29.95in /  1014.1hPa Calm     86% 0.00in /  0mm
04:44 46.5 °F /  8.1 °C 42.5 °F /  5.8 °C 29.95in /  1014.1hPa Calm     86% 0.00in /  0mm
04:49 46.3 °F /  7.9 °C 42.3 °F /  5.7 °C 29.96in /  1014.4hPa Calm     86% 0.00in /  0mm
04:54 46.2 °F /  7.9 °C 42.5 °F /  5.8 °C 29.96in /  1014.4hPa Calm     87% 0.00in /  0mm
04:59 46.1 °F /  7.8 °C 42.4 °F /  5.8 °C 29.96in /  1014.4hPa Calm     87% 0.00in /  0mm
05:04 45.9 °F /  7.7 °C 41.9 °F /  5.5 °C 29.96in /  1014.4hPa Calm     86% 0.00in /  0mm
05:09 45.8 °F /  7.7 °C 42.2 °F /  5.7 °C 29.96in /  1014.4hPa Calm     87% 0.00in /  0mm
05:14 45.8 °F /  7.7 °C 42.2 °F /  5.7 °C 29.96in /  1014.4hPa Calm     87% 0.00in /  0mm
05:19 45.6 °F /  7.6 °C 42.0 °F /  5.6 °C 29.97in /  1014.8hPa Calm     87% 0.00in /  0mm
05:24 45.6 °F /  7.6 °C 42.0 °F /  5.6 °C 29.97in /  1014.8hPa Calm     87% 0.00in /  0mm
05:29 45.5 °F /  7.5 °C 41.9 °F /  5.5 °C 29.97in /  1014.8hPa Calm     87% 0.00in /  0mm
05:34 45.6 °F /  7.6 °C 42.3 °F /  5.7 °C 29.97in /  1014.8hPa Calm     88% 0.00in /  0mm
05:39 45.8 °F /  7.7 °C 42.4 °F /  5.8 °C 29.97in /  1014.8hPa Calm     88% 0.00in /  0mm
05:44 45.6 °F /  7.6 °C 42.0 °F /  5.6 °C 29.97in /  1014.8hPa Calm     87% 0.00in /  0mm
05:49 45.6 °F /  7.6 °C 42.3 °F /  5.7 °C 29.97in /  1014.8hPa Calm     88% 0.00in /  0mm
05:54 45.8 °F /  7.7 °C 42.4 °F /  5.8 °C 29.97in /  1014.8hPa Calm     88% 0.00in /  0mm
05:59 45.7 °F /  7.6 °C 42.3 °F /  5.7 °C 29.97in /  1014.8hPa Calm     88% 0.00in /  0mm
06:04 45.9 °F /  7.7 °C 42.2 °F /  5.7 °C 29.97in /  1014.8hPa Calm     87% 0.00in /  0mm
06:09 45.7 °F /  7.6 °C 42.3 °F /  5.7 °C 29.98in /  1015.1hPa Calm     88% 0.00in /  0mm
06:14 45.9 °F /  7.7 °C 42.5 °F /  5.8 °C 29.98in /  1015.1hPa Calm     88% 0.00in /  0mm
06:24 46.8 °F /  8.2 °C 43.1 °F /  6.2 °C 29.99in /  1015.5hPa Calm     87% 0.00in /  0mm
06:29 47.0 °F /  8.3 °C 43.0 °F /  6.1 °C 29.99in /  1015.5hPa Calm     86% 0.00in /  0mm
06:34 47.3 °F /  8.5 °C 43.6 °F /  6.4 °C 29.99in /  1015.5hPa Calm     87% 0.00in /  0mm
06:39 48.0 °F /  8.9 °C 44.0 °F /  6.7 °C 29.99in /  1015.5hPa Calm     86% 0.00in /  0mm
06:44 48.9 °F /  9.4 °C 44.9 °F /  7.2 °C 30.00in /  1015.8hPa Calm     86% 0.00in /  0mm
06:49 50.0 °F /  10 °C 45.7 °F /  7.6 °C 30.00in /  1015.8hPa SW 1.0mph /  1.6km/h 2.0mph /  3.2km/h 85% 0.00in /  0mm
06:54 51.1 °F /  10.6 °C 46.7 °F /  8.2 °C 30.00in /  1015.8hPa WSW 1.0mph /  1.6km/h 3.0mph /  4.8km/h 85% 0.00in /  0mm
06:59 52.1 °F /  11.2 °C 47.1 °F /  8.4 °C 30.00in /  1015.8hPa West 2.0mph /  3.2km/h 5.0mph /  8km/h 83% 0.00in /  0mm
07:04 53.3 °F /  11.8 °C 47.3 °F /  8.5 °C 30.00in /  1015.8hPa West 3.0mph /  4.8km/h 5.0mph /  8km/h 80% 0.00in /  0mm
07:09 54.0 °F /  12.2 °C 47.6 °F /  8.7 °C 30.00in /  1015.8hPa WNW 2.0mph /  3.2km/h 6.0mph /  9.7km/h 79% 0.00in /  0mm
07:14 54.1 °F /  12.3 °C 46.7 °F /  8.2 °C 30.00in /  1015.8hPa WNW 3.0mph /  4.8km/h 9.0mph /  14.5km/h 76% 0.00in /  0mm
07:19 54.4 °F /  12.4 °C 47.0 °F /  8.3 °C 30.00in /  1015.8hPa WNW 3.0mph /  4.8km/h 6.0mph /  9.7km/h 76% 0.00in /  0mm
07:24 54.7 °F /  12.6 °C 46.9 °F /  8.3 °C 30.00in /  1015.8hPa WNW 1.0mph /  1.6km/h 5.0mph /  8km/h 75% 0.00in /  0mm
07:29 54.9 °F /  12.7 °C 46.0 °F /  7.8 °C 30.00in /  1015.8hPa WNW 4.0mph /  6.4km/h 9.0mph /  14.5km/h 72% 0.00in /  0mm
07:34 55.1 °F /  12.8 °C 45.5 °F /  7.5 °C 30.00in /  1015.8hPa WNW 5.0mph /  8km/h 10.0mph /  16.1km/h 70% 0.00in /  0mm
07:39 55.5 °F /  13.1 °C 44.7 °F /  7.1 °C 30.00in /  1015.8hPa WNW 5.0mph /  8km/h 10.0mph /  16.1km/h 67% 0.00in /  0mm
07:44 56.1 °F /  13.4 °C 45.3 °F /  7.4 °C 30.00in /  1015.8hPa WNW 4.0mph /  6.4km/h 8.0mph /  12.9km/h 67% 0.00in /  0mm
07:49 56.5 °F /  13.6 °C 43.6 °F /  6.4 °C 30.00in /  1015.8hPa WNW 8.0mph /  12.9km/h 10.0mph /  16.1km/h 62% 0.00in /  0mm
07:54 56.7 °F /  13.7 °C 43.4 °F /  6.3 °C 30.01in /  1016.1hPa West 5.0mph /  8km/h 9.0mph /  14.5km/h 61% 0.00in /  0mm
07:59 57.0 °F /  13.9 °C 42.8 °F /  6 °C 30.01in /  1016.1hPa WNW 2.0mph /  3.2km/h 10.0mph /  16.1km/h 59% 0.00in /  0mm
08:04 57.5 °F /  14.2 °C 42.4 °F /  5.8 °C 30.01in /  1016.1hPa WNW 7.0mph /  11.3km/h 9.0mph /  14.5km/h 57% 0.00in /  0mm
08:09 57.9 °F /  14.4 °C 42.3 °F /  5.7 °C 30.02in /  1016.5hPa WNW 5.0mph /  8km/h 9.0mph /  14.5km/h 56% 0.00in /  0mm
08:14 57.9 °F /  14.4 °C 41.8 °F /  5.4 °C 30.01in /  1016.1hPa West 6.0mph /  9.7km/h 13.0mph /  20.9km/h 55% 0.00in /  0mm
08:19 58.2 °F /  14.6 °C 42.6 °F /  5.9 °C 30.02in /  1016.5hPa NW 4.0mph /  6.4km/h 11.0mph /  17.7km/h 56% 0.00in /  0mm
08:24 58.3 °F /  14.6 °C 41.7 °F /  5.4 °C 30.02in /  1016.5hPa West 4.0mph /  6.4km/h 10.0mph /  16.1km/h 54% 0.00in /  0mm
08:29 58.2 °F /  14.6 °C 42.1 °F /  5.6 °C 30.02in /  1016.5hPa NW 3.0mph /  4.8km/h 10.0mph /  16.1km/h 55% 0.00in /  0mm
08:34 58.8 °F /  14.9 °C 42.7 °F /  5.9 °C 30.02in /  1016.5hPa WNW 4.0mph /  6.4km/h 11.0mph /  17.7km/h 55% 0.00in /  0mm
08:39 58.5 °F /  14.7 °C 41.9 °F /  5.5 °C 30.03in /  1016.8hPa WNW 5.0mph /  8km/h 12.0mph /  19.3km/h 54% 0.00in /  0mm
08:44 58.5 °F /  14.7 °C 42.8 °F /  6 °C 30.03in /  1016.8hPa WNW 6.0mph /  9.7km/h 12.0mph /  19.3km/h 56% 0.00in /  0mm
08:49 59.8 °F /  15.4 °C 43.6 °F /  6.4 °C 30.03in /  1016.8hPa WNW 4.0mph /  6.4km/h 10.0mph /  16.1km/h 55% 0.00in /  0mm
08:54 59.5 °F /  15.3 °C 41.9 °F /  5.5 °C 30.03in /  1016.8hPa WNW 4.0mph /  6.4km/h 10.0mph /  16.1km/h 52% 0.00in /  0mm
08:59 59.4 °F /  15.2 °C 42.3 °F /  5.7 °C 30.03in /  1016.8hPa NW 3.0mph /  4.8km/h 13.0mph /  20.9km/h 53% 0.00in /  0mm
09:04 59.7 °F /  15.4 °C 41.0 °F /  5 °C 30.03in /  1016.8hPa NW 7.0mph /  11.3km/h 13.0mph /  20.9km/h 50% 0.00in /  0mm
09:09 60.0 °F /  15.6 °C 41.3 °F /  5.2 °C 30.03in /  1016.8hPa WNW 7.0mph /  11.3km/h 9.0mph /  14.5km/h 50% 0.00in /  0mm
09:14 60.4 °F /  15.8 °C 41.7 °F /  5.4 °C 30.03in /  1016.8hPa WNW 4.0mph /  6.4km/h 8.0mph /  12.9km/h 50% 0.00in /  0mm
09:19 60.4 °F /  15.8 °C 42.2 °F /  5.7 °C 30.03in /  1016.8hPa North 5.0mph /  8km/h 8.0mph /  12.9km/h 51% 0.00in /  0mm
09:24 60.1 °F /  15.6 °C 41.9 °F /  5.5 °C 30.03in /  1016.8hPa WNW 4.0mph /  6.4km/h 9.0mph /  14.5km/h 51% 0.00in /  0mm
09:29 60.8 °F /  16 °C 41.0 °F /  5 °C 30.03in /  1016.8hPa NNE 3.0mph /  4.8km/h 9.0mph /  14.5km/h 48% 0.00in /  0mm
09:34 61.6 °F /  16.4 °C 39.5 °F /  4.2 °C 30.03in /  1016.8hPa NW 3.0mph /  4.8km/h 9.0mph /  14.5km/h 44% 0.00in /  0mm
09:39 61.2 °F /  16.2 °C 40.8 °F /  4.9 °C 30.04in /  1017.2hPa NW 4.0mph /  6.4km/h 9.0mph /  14.5km/h 47% 0.00in /  0mm
09:44 61.0 °F /  16.1 °C 38.9 °F /  3.8 °C 30.04in /  1017.2hPa NW 5.0mph /  8km/h 9.0mph /  14.5km/h 44% 0.00in /  0mm
09:49 61.3 °F /  16.3 °C 40.3 °F /  4.6 °C 30.04in /  1017.2hPa NW 5.0mph /  8km/h 9.0mph /  14.5km/h 46% 0.00in /  0mm
09:54 61.3 °F /  16.3 °C 41.4 °F /  5.2 °C 30.04in /  1017.2hPa WNW 5.0mph /  8km/h 11.0mph /  17.7km/h 48% 0.00in /  0mm
09:59 61.4 °F /  16.3 °C 42.1 °F /  5.6 °C 30.04in /  1017.2hPa NW 5.0mph /  8km/h 11.0mph /  17.7km/h 49% 0.00in /  0mm
10:04 61.7 °F /  16.5 °C 41.8 °F /  5.4 °C 30.04in /  1017.2hPa NW 4.0mph /  6.4km/h 8.0mph /  12.9km/h 48% 0.00in /  0mm
10:09 61.5 °F /  16.4 °C 42.2 °F /  5.7 °C 30.04in /  1017.2hPa WNW 5.0mph /  8km/h 7.0mph /  11.3km/h 49% 0.00in /  0mm
10:14 61.8 °F /  16.6 °C 45.5 °F /  7.5 °C 30.04in /  1017.2hPa NW 3.0mph /  4.8km/h 7.0mph /  11.3km/h 55% 0.00in /  0mm
10:19 62.4 °F /  16.9 °C 43.5 °F /  6.4 °C 30.04in /  1017.2hPa NW 3.0mph /  4.8km/h 9.0mph /  14.5km/h 50% 0.00in /  0mm
10:24 61.9 °F /  16.6 °C 43.6 °F /  6.4 °C 30.04in /  1017.2hPa NW 8.0mph /  12.9km/h 9.0mph /  14.5km/h 51% 0.00in /  0mm
10:29 62.7 °F /  17.1 °C 43.3 °F /  6.3 °C 30.04in /  1017.2hPa NNW 6.0mph /  9.7km/h 9.0mph /  14.5km/h 49% 0.00in /  0mm
10:34 62.4 °F /  16.9 °C 41.9 °F /  5.5 °C 30.04in /  1017.2hPa NW 4.0mph /  6.4km/h 9.0mph /  14.5km/h 47% 0.00in /  0mm
10:39 62.5 °F /  16.9 °C 43.1 °F /  6.2 °C 30.04in /  1017.2hPa NNW 4.0mph /  6.4km/h 9.0mph /  14.5km/h 49% 0.00in /  0mm
10:44 63.2 °F /  17.3 °C 42.6 °F /  5.9 °C 30.04in /  1017.2hPa NNW 4.0mph /  6.4km/h 8.0mph /  12.9km/h 47% 0.00in /  0mm
10:49 63.5 °F /  17.5 °C 44.0 °F /  6.7 °C 30.04in /  1017.2hPa NNW 3.0mph /  4.8km/h 9.0mph /  14.5km/h 49% 0.00in /  0mm
10:54 63.4 °F /  17.4 °C 43.9 °F /  6.6 °C 30.04in /  1017.2hPa NW 4.0mph /  6.4km/h 6.0mph /  9.7km/h 49% 0.00in /  0mm
10:59 64.3 °F /  17.9 °C 44.2 °F /  6.8 °C 30.04in /  1017.2hPa WNW 2.0mph /  3.2km/h 9.0mph /  14.5km/h 48% 0.00in /  0mm
11:04 63.7 °F /  17.6 °C 43.1 °F /  6.2 °C 30.04in /  1017.2hPa NW 3.0mph /  4.8km/h 11.0mph /  17.7km/h 47% 0.00in /  0mm
11:09 64.0 °F /  17.8 °C 42.8 °F /  6 °C 30.05in /  1017.5hPa NNW 4.0mph /  6.4km/h 11.0mph /  17.7km/h 46% 0.00in /  0mm
11:19 64.1 °F /  17.8 °C 43.4 °F /  6.3 °C 30.04in /  1017.2hPa NNW 3.0mph /  4.8km/h 9.0mph /  14.5km/h 47% 0.00in /  0mm
11:24 64.5 °F /  18.1 °C 41.5 °F /  5.3 °C 30.05in /  1017.5hPa NW 3.0mph /  4.8km/h 10.0mph /  16.1km/h 43% 0.00in /  0mm
11:29 63.8 °F /  17.7 °C 42.6 °F /  5.9 °C 30.05in /  1017.5hPa NNW 3.0mph /  4.8km/h 10.0mph /  16.1km/h 46% 0.00in /  0mm
11:34 64.3 °F /  17.9 °C 42.5 °F /  5.8 °C 30.05in /  1017.5hPa WNW 1.0mph /  1.6km/h 7.0mph /  11.3km/h 45% 0.00in /  0mm
11:39 65.3 °F /  18.5 °C 42.2 °F /  5.7 °C 30.05in /  1017.5hPa WNW 4.0mph /  6.4km/h 12.0mph /  19.3km/h 43% 0.00in /  0mm
11:44 65.2 °F /  18.4 °C 42.7 °F /  5.9 °C 30.05in /  1017.5hPa WNW 5.0mph /  8km/h 13.0mph /  20.9km/h 44% 0.00in /  0mm
11:49 64.4 °F /  18 °C 42.0 °F /  5.6 °C 30.05in /  1017.5hPa WNW 8.0mph /  12.9km/h 12.0mph /  19.3km/h 44% 0.00in /  0mm
11:54 64.1 °F /  17.8 °C 40.5 °F /  4.7 °C 30.05in /  1017.5hPa NW 4.0mph /  6.4km/h 11.0mph /  17.7km/h 42% 0.00in /  0mm
11:59 64.8 °F /  18.2 °C 44.1 °F /  6.7 °C 30.05in /  1017.5hPa NW 5.0mph /  8km/h 11.0mph /  17.7km/h 47% 0.00in /  0mm
12:04 65.8 °F /  18.8 °C 43.9 °F /  6.6 °C 30.05in /  1017.5hPa NNW 5.0mph /  8km/h 11.0mph /  17.7km/h 45% 0.00in /  0mm
12:09 65.5 °F /  18.6 °C 43.0 °F /  6.1 °C 30.05in /  1017.5hPa NW 5.0mph /  8km/h 11.0mph /  17.7km/h 44% 0.00in /  0mm
12:14 65.2 °F /  18.4 °C 42.1 °F /  5.6 °C 30.05in /  1017.5hPa WNW 6.0mph /  9.7km/h 11.0mph /  17.7km/h 43% 0.00in /  0mm
12:19 65.4 °F /  18.6 °C 42.9 °F /  6.1 °C 30.05in /  1017.5hPa WNW 6.0mph /  9.7km/h 11.0mph /  17.7km/h 44% 0.00in /  0mm
12:24 65.4 °F /  18.6 °C 41.7 °F /  5.4 °C 30.05in /  1017.5hPa WNW 7.0mph /  11.3km/h 15.0mph /  24.1km/h 42% 0.00in /  0mm
12:29 64.8 °F /  18.2 °C 39.9 °F /  4.4 °C 30.05in /  1017.5hPa NW 9.0mph /  14.5km/h 11.0mph /  17.7km/h 40% 0.00in /  0mm
12:34 65.2 °F /  18.4 °C 44.5 °F /  6.9 °C 30.05in /  1017.5hPa NW 6.0mph /  9.7km/h 11.0mph /  17.7km/h 47% 0.00in /  0mm
12:39 65.6 °F /  18.7 °C 39.3 °F /  4.1 °C 30.05in /  1017.5hPa WNW 6.0mph /  9.7km/h 16.0mph /  25.7km/h 38% 0.00in /  0mm
12:44 65.0 °F /  18.3 °C 38.8 °F /  3.8 °C 30.06in /  1017.8hPa WNW 10.0mph /  16.1km/h 16.0mph /  25.7km/h 38% 0.00in /  0mm
12:49 65.1 °F /  18.4 °C 39.5 °F /  4.2 °C 30.05in /  1017.5hPa North 7.0mph /  11.3km/h 13.0mph /  20.9km/h 39% 0.00in /  0mm
12:54 64.7 °F /  18.2 °C 39.8 °F /  4.3 °C 30.05in /  1017.5hPa North 4.0mph /  6.4km/h 15.0mph /  24.1km/h 40% 0.00in /  0mm
12:59 65.4 °F /  18.6 °C 40.4 °F /  4.7 °C 30.05in /  1017.5hPa NW 3.0mph /  4.8km/h 14.0mph /  22.5km/h 40% 0.00in /  0mm
13:04 65.9 °F /  18.8 °C 43.4 °F /  6.3 °C 30.05in /  1017.5hPa NNE 4.0mph /  6.4km/h 9.0mph /  14.5km/h 44% 0.00in /  0mm
13:09 65.6 °F /  18.7 °C 40.0 °F /  4.4 °C 30.04in /  1017.2hPa NNW 4.0mph /  6.4km/h 10.0mph /  16.1km/h 39% 0.00in /  0mm
13:14 66.2 °F /  19 °C 41.2 °F /  5.1 °C 30.05in /  1017.5hPa NW 5.0mph /  8km/h 14.0mph /  22.5km/h 40% 0.00in /  0mm
13:19 66.2 °F /  19 °C 43.6 °F /  6.4 °C 30.04in /  1017.2hPa NW 6.0mph /  9.7km/h 14.0mph /  22.5km/h 44% 0.00in /  0mm
13:24 67.1 °F /  19.5 °C 43.2 °F /  6.2 °C 30.04in /  1017.2hPa WNW 5.0mph /  8km/h 13.0mph /  20.9km/h 42% 0.00in /  0mm
13:29 66.7 °F /  19.3 °C 41.6 °F /  5.3 °C 30.04in /  1017.2hPa WNW 5.0mph /  8km/h 13.0mph /  20.9km/h 40% 0.00in /  0mm
13:34 66.5 °F /  19.2 °C 41.4 °F /  5.2 °C 30.04in /  1017.2hPa North 3.0mph /  4.8km/h 11.0mph /  17.7km/h 40% 0.00in /  0mm
13:39 67.2 °F /  19.6 °C 42.7 °F /  5.9 °C 30.04in /  1017.2hPa NW 6.0mph /  9.7km/h 16.0mph /  25.7km/h 41% 0.00in /  0mm
13:44 65.8 °F /  18.8 °C 43.3 °F /  6.3 °C 30.04in /  1017.2hPa WNW 7.0mph /  11.3km/h 16.0mph /  25.7km/h 44% 0.00in /  0mm
13:49 64.7 °F /  18.2 °C 44.5 °F /  6.9 °C 30.04in /  1017.2hPa West 6.0mph /  9.7km/h 12.0mph /  19.3km/h 48% 0.00in /  0mm
13:54 63.6 °F /  17.6 °C 44.1 °F /  6.7 °C 30.04in /  1017.2hPa WSW 5.0mph /  8km/h 11.0mph /  17.7km/h 49% 0.00in /  0mm
13:59 64.8 °F /  18.2 °C 44.6 °F /  7 °C 30.04in /  1017.2hPa SW 12.0mph /  19.3km/h 17.0mph /  27.4km/h 48% 0.00in /  0mm
14:04 65.0 °F /  18.3 °C 44.3 °F /  6.8 °C 30.04in /  1017.2hPa SSW 6.0mph /  9.7km/h 13.0mph /  20.9km/h 47% 0.00in /  0mm
14:09 65.0 °F /  18.3 °C 43.7 °F /  6.5 °C 30.04in /  1017.2hPa SW 7.0mph /  11.3km/h 13.0mph /  20.9km/h 46% 0.00in /  0mm
14:14 65.7 °F /  18.7 °C 44.3 °F /  6.8 °C 30.04in /  1017.2hPa WSW 10.0mph /  16.1km/h 16.0mph /  25.7km/h 46% 0.00in /  0mm
14:19 64.8 °F /  18.2 °C 43.5 °F /  6.4 °C 30.04in /  1017.2hPa WSW 7.0mph /  11.3km/h 16.0mph /  25.7km/h 46% 0.00in /  0mm
14:24 64.1 °F /  17.8 °C 45.6 °F /  7.6 °C 30.03in /  1016.8hPa SW 7.0mph /  11.3km/h 14.0mph /  22.5km/h 51% 0.00in /  0mm
14:29 64.7 °F /  18.2 °C 45.1 °F /  7.3 °C 30.03in /  1016.8hPa SW 7.0mph /  11.3km/h 13.0mph /  20.9km/h 49% 0.00in /  0mm
14:34 65.8 °F /  18.8 °C 45.0 °F /  7.2 °C 30.03in /  1016.8hPa WSW 7.0mph /  11.3km/h 13.0mph /  20.9km/h 47% 0.00in /  0mm
14:39 66.4 °F /  19.1 °C 46.7 °F /  8.2 °C 30.03in /  1016.8hPa SW 7.0mph /  11.3km/h 13.0mph /  20.9km/h 49% 0.00in /  0mm
14:44 66.4 °F /  19.1 °C 46.1 °F /  7.8 °C 30.03in /  1016.8hPa SW 12.0mph /  19.3km/h 14.0mph /  22.5km/h 48% 0.00in /  0mm
14:49 66.0 °F /  18.9 °C 47.9 °F /  8.8 °C 30.03in /  1016.8hPa WSW 7.0mph /  11.3km/h 17.0mph /  27.4km/h 52% 0.00in /  0mm
14:54 65.5 °F /  18.6 °C 46.4 °F /  8 °C 30.03in /  1016.8hPa SW 14.0mph /  22.5km/h 17.0mph /  27.4km/h 50% 0.00in /  0mm
14:59 65.8 °F /  18.8 °C 46.6 °F /  8.1 °C 30.03in /  1016.8hPa SW 14.0mph /  22.5km/h 18.0mph /  29km/h 50% 0.00in /  0mm
15:04 65.5 °F /  18.6 °C 45.8 °F /  7.7 °C 30.03in /  1016.8hPa SW 4.0mph /  6.4km/h 15.0mph /  24.1km/h 49% 0.00in /  0mm
15:09 65.1 °F /  18.4 °C 46.0 °F /  7.8 °C 30.03in /  1016.8hPa SW 9.0mph /  14.5km/h 16.0mph /  25.7km/h 50% 0.00in /  0mm
15:14 65.4 °F /  18.6 °C 47.3 °F /  8.5 °C 30.03in /  1016.8hPa SW 7.0mph /  11.3km/h 16.0mph /  25.7km/h 52% 0.00in /  0mm
15:19 65.2 °F /  18.4 °C 46.1 °F /  7.8 °C 30.03in /  1016.8hPa SW 7.0mph /  11.3km/h 15.0mph /  24.1km/h 50% 0.00in /  0mm
15:24 65.5 °F /  18.6 °C 45.3 °F /  7.4 °C 30.03in /  1016.8hPa WSW 7.0mph /  11.3km/h 15.0mph /  24.1km/h 48% 0.00in /  0mm
15:29 65.2 °F /  18.4 °C 46.6 °F /  8.1 °C 30.03in /  1016.8hPa West 12.0mph /  19.3km/h 13.0mph /  20.9km/h 51% 0.00in /  0mm
15:34 65.2 °F /  18.4 °C 46.6 °F /  8.1 °C 30.03in /  1016.8hPa South 8.0mph /  12.9km/h 15.0mph /  24.1km/h 51% 0.00in /  0mm
15:39 64.7 °F /  18.2 °C 46.1 °F /  7.8 °C 30.03in /  1016.8hPa SSW 3.0mph /  4.8km/h 13.0mph /  20.9km/h 51% 0.00in /  0mm
15:44 65.4 °F /  18.6 °C 45.2 °F /  7.3 °C 30.03in /  1016.8hPa SW 7.0mph /  11.3km/h 17.0mph /  27.4km/h 48% 0.00in /  0mm
15:49 64.5 °F /  18.1 °C 44.9 °F /  7.2 °C 30.03in /  1016.8hPa WSW 7.0mph /  11.3km/h 17.0mph /  27.4km/h 49% 0.00in /  0mm
15:54 64.7 °F /  18.2 °C 45.1 °F /  7.3 °C 30.02in /  1016.5hPa SSW 8.0mph /  12.9km/h 13.0mph /  20.9km/h 49% 0.00in /  0mm
15:59 64.8 °F /  18.2 °C 44.1 °F /  6.7 °C 30.02in /  1016.5hPa WNW 7.0mph /  11.3km/h 16.0mph /  25.7km/h 47% 0.00in /  0mm
16:04 64.9 °F /  18.3 °C 45.3 °F /  7.4 °C 30.02in /  1016.5hPa SSW 10.0mph /  16.1km/h 16.0mph /  25.7km/h 49% 0.00in /  0mm
16:09 64.9 °F /  18.3 °C 43.6 °F /  6.4 °C 30.02in /  1016.5hPa SW 7.0mph /  11.3km/h 14.0mph /  22.5km/h 46% 0.00in /  0mm
16:14 64.9 °F /  18.3 °C 45.3 °F /  7.4 °C 30.02in /  1016.5hPa WSW 8.0mph /  12.9km/h 14.0mph /  22.5km/h 49% 0.00in /  0mm
16:19 64.9 °F /  18.3 °C 46.3 °F /  7.9 °C 30.02in /  1016.5hPa WSW 7.0mph /  11.3km/h 14.0mph /  22.5km/h 51% 0.00in /  0mm
16:24 64.4 °F /  18 °C 44.3 °F /  6.8 °C 30.02in /  1016.5hPa SSW 5.0mph /  8km/h 18.0mph /  29km/h 48% 0.00in /  0mm
16:29 64.1 °F /  17.8 °C 45.1 °F /  7.3 °C 30.02in /  1016.5hPa WNW 10.0mph /  16.1km/h 14.0mph /  22.5km/h 50% 0.00in /  0mm
16:34 64.1 °F /  17.8 °C 45.1 °F /  7.3 °C 30.01in /  1016.1hPa WSW 9.0mph /  14.5km/h 18.0mph /  29km/h 50% 0.00in /  0mm
16:39 64.0 °F /  17.8 °C 44.4 °F /  6.9 °C 30.01in /  1016.1hPa SSW 7.0mph /  11.3km/h 17.0mph /  27.4km/h 49% 0.00in /  0mm
16:44 63.9 °F /  17.7 °C 45.9 °F /  7.7 °C 30.02in /  1016.5hPa WSW 9.0mph /  14.5km/h 17.0mph /  27.4km/h 52% 0.00in /  0mm
16:49 64.7 °F /  18.2 °C 46.1 °F /  7.8 °C 30.01in /  1016.1hPa WSW 8.0mph /  12.9km/h 16.0mph /  25.7km/h 51% 0.00in /  0mm
16:54 64.2 °F /  17.9 °C 46.2 °F /  7.9 °C 30.01in /  1016.1hPa WSW 7.0mph /  11.3km/h 15.0mph /  24.1km/h 52% 0.00in /  0mm
16:59 64.5 °F /  18.1 °C 46.0 °F /  7.8 °C 30.01in /  1016.1hPa WSW 7.0mph /  11.3km/h 15.0mph /  24.1km/h 51% 0.00in /  0mm
17:04 64.4 °F /  18 °C 45.3 °F /  7.4 °C 30.01in /  1016.1hPa WSW 7.0mph /  11.3km/h 22.0mph /  35.4km/h 50% 0.00in /  0mm
17:09 63.7 °F /  17.6 °C 44.7 °F /  7.1 °C 30.01in /  1016.1hPa SW 6.0mph /  9.7km/h 18.0mph /  29km/h 50% 0.00in /  0mm
17:14 63.3 °F /  17.4 °C 44.3 °F /  6.8 °C 30.01in /  1016.1hPa WSW 9.0mph /  14.5km/h 18.0mph /  29km/h 50% 0.00in /  0mm
17:19 63.5 °F /  17.5 °C 45.6 °F /  7.6 °C 30.01in /  1016.1hPa SW 11.0mph /  17.7km/h 16.0mph /  25.7km/h 52% 0.00in /  0mm
17:24 63.6 °F /  17.6 °C 45.1 °F /  7.3 °C 30.01in /  1016.1hPa West 6.0mph /  9.7km/h 20.0mph /  32.2km/h 51% 0.00in /  0mm
17:29 63.9 °F /  17.7 °C 45.4 °F /  7.4 °C 30.01in /  1016.1hPa SSW 7.0mph /  11.3km/h 12.0mph /  19.3km/h 51% 0.00in /  0mm
17:34 63.6 °F /  17.6 °C 45.6 °F /  7.6 °C 30.01in /  1016.1hPa South 3.0mph /  4.8km/h 19.0mph /  30.6km/h 52% 0.00in /  0mm
17:39 63.4 °F /  17.4 °C 44.9 °F /  7.2 °C 30.01in /  1016.1hPa WSW 9.0mph /  14.5km/h 19.0mph /  30.6km/h 51% 0.00in /  0mm
17:44 63.3 °F /  17.4 °C 45.4 °F /  7.4 °C 30.01in /  1016.1hPa WSW 8.0mph /  12.9km/h 15.0mph /  24.1km/h 52% 0.00in /  0mm
17:49 63.6 °F /  17.6 °C 46.6 °F /  8.1 °C 30.01in /  1016.1hPa WSW 7.0mph /  11.3km/h 15.0mph /  24.1km/h 54% 0.00in /  0mm
17:54 63.6 °F /  17.6 °C 44.6 °F /  7 °C 30.01in /  1016.1hPa WSW 7.0mph /  11.3km/h 16.0mph /  25.7km/h 50% 0.00in /  0mm
17:59 63.3 °F /  17.4 °C 44.3 °F /  6.8 °C 30.01in /  1016.1hPa WNW 5.0mph /  8km/h 14.0mph /  22.5km/h 50% 0.00in /  0mm
18:04 63.3 °F /  17.4 °C 43.8 °F /  6.6 °C 30.00in /  1015.8hPa SW 11.0mph /  17.7km/h 16.0mph /  25.7km/h 49% 0.00in /  0mm
18:09 63.2 °F /  17.3 °C 44.8 °F /  7.1 °C 30.00in /  1015.8hPa WSW 8.0mph /  12.9km/h 16.0mph /  25.7km/h 51% 0.00in /  0mm
18:14 63.2 °F /  17.3 °C 43.7 °F /  6.5 °C 30.00in /  1015.8hPa WSW 8.0mph /  12.9km/h 17.0mph /  27.4km/h 49% 0.00in /  0mm
18:19 63.2 °F /  17.3 °C 43.7 °F /  6.5 °C 30.00in /  1015.8hPa WSW 8.0mph /  12.9km/h 17.0mph /  27.4km/h 49% 0.00in /  0mm
18:24 62.9 °F /  17.2 °C 44.5 °F /  6.9 °C 30.00in /  1015.8hPa WSW 7.0mph /  11.3km/h 17.0mph /  27.4km/h 51% 0.00in /  0mm
18:29 62.9 °F /  17.2 °C 44.0 °F /  6.7 °C 30.00in /  1015.8hPa WSW 7.0mph /  11.3km/h 16.0mph /  25.7km/h 50% 0.00in /  0mm
18:34 62.8 °F /  17.1 °C 43.3 °F /  6.3 °C 30.00in /  1015.8hPa West 7.0mph /  11.3km/h 17.0mph /  27.4km/h 49% 0.00in /  0mm
18:39 62.8 °F /  17.1 °C 43.9 °F /  6.6 °C 30.00in /  1015.8hPa WSW 5.0mph /  8km/h 14.0mph /  22.5km/h 50% 0.00in /  0mm
18:44 62.7 °F /  17.1 °C 44.3 °F /  6.8 °C 30.00in /  1015.8hPa WSW 7.0mph /  11.3km/h 16.0mph /  25.7km/h 51% 0.00in /  0mm
18:49 62.6 °F /  17 °C 43.7 °F /  6.5 °C 30.00in /  1015.8hPa WSW 8.0mph /  12.9km/h 19.0mph /  30.6km/h 50% 0.00in /  0mm
18:54 62.6 °F /  17 °C 43.2 °F /  6.2 °C 30.00in /  1015.8hPa West 4.0mph /  6.4km/h 15.0mph /  24.1km/h 49% 0.00in /  0mm
18:59 62.4 °F /  16.9 °C 43.5 °F /  6.4 °C 30.00in /  1015.8hPa SW 4.0mph /  6.4km/h 14.0mph /  22.5km/h 50% 0.00in /  0mm
19:04 62.2 °F /  16.8 °C 44.3 °F /  6.8 °C 29.99in /  1015.5hPa West 6.0mph /  9.7km/h 16.0mph /  25.7km/h 52% 0.00in /  0mm
19:09 62.0 °F /  16.7 °C 44.7 °F /  7.1 °C 30.00in /  1015.8hPa SW 4.0mph /  6.4km/h 11.0mph /  17.7km/h 53% 0.00in /  0mm
19:14 61.6 °F /  16.4 °C 44.8 °F /  7.1 °C 30.00in /  1015.8hPa WSW 7.0mph /  11.3km/h 13.0mph /  20.9km/h 54% 0.00in /  0mm
19:19 61.3 °F /  16.3 °C 45.0 °F /  7.2 °C 29.99in /  1015.5hPa WSW 6.0mph /  9.7km/h 14.0mph /  22.5km/h 55% 0.00in /  0mm
19:24 61.0 °F /  16.1 °C 45.7 °F /  7.6 °C 29.99in /  1015.5hPa WSW 6.0mph /  9.7km/h 14.0mph /  22.5km/h 57% 0.00in /  0mm
19:29 60.8 °F /  16 °C 45.9 °F /  7.7 °C 29.99in /  1015.5hPa WSW 5.0mph /  8km/h 13.0mph /  20.9km/h 58% 0.00in /  0mm
19:34 60.6 °F /  15.9 °C 46.2 °F /  7.9 °C 30.00in /  1015.8hPa WSW 13.0mph /  20.9km/h 13.0mph /  20.9km/h 59% 0.00in /  0mm
19:39 60.3 °F /  15.7 °C 46.4 °F /  8 °C 30.00in /  1015.8hPa WSW 10.0mph /  16.1km/h 17.0mph /  27.4km/h 60% 0.00in /  0mm
19:44 60.0 °F /  15.6 °C 46.5 °F /  8.1 °C 30.00in /  1015.8hPa WSW 7.0mph /  11.3km/h 17.0mph /  27.4km/h 61% 0.00in /  0mm
19:49 59.8 °F /  15.4 °C 47.2 °F /  8.4 °C 29.99in /  1015.5hPa WSW 6.0mph /  9.7km/h 12.0mph /  19.3km/h 63% 0.00in /  0mm
19:54 59.9 °F /  15.5 °C 47.3 °F /  8.5 °C 29.99in /  1015.5hPa WSW 5.0mph /  8km/h 10.0mph /  16.1km/h 63% 0.00in /  0mm
19:59 59.8 °F /  15.4 °C 47.6 °F /  8.7 °C 30.00in /  1015.8hPa WSW 5.0mph /  8km/h 11.0mph /  17.7km/h 64% 0.00in /  0mm
20:04 59.7 °F /  15.4 °C 47.9 °F /  8.8 °C 30.00in /  1015.8hPa WSW 5.0mph /  8km/h 11.0mph /  17.7km/h 65% 0.00in /  0mm
20:09 59.6 °F /  15.3 °C 48.2 °F /  9 °C 29.99in /  1015.5hPa WNW 3.0mph /  4.8km/h 11.0mph /  17.7km/h 66% 0.00in /  0mm
20:14 59.4 °F /  15.2 °C 48.4 °F /  9.1 °C 30.00in /  1015.8hPa SW 5.0mph /  8km/h 9.0mph /  14.5km/h 67% 0.00in /  0mm
20:19 59.4 °F /  15.2 °C 48.8 °F /  9.3 °C 29.99in /  1015.5hPa WSW 5.0mph /  8km/h 10.0mph /  16.1km/h 68% 0.00in /  0mm
20:24 59.2 °F /  15.1 °C 49.0 °F /  9.4 °C 29.99in /  1015.5hPa West 4.0mph /  6.4km/h 12.0mph /  19.3km/h 69% 0.00in /  0mm
20:29 58.9 °F /  14.9 °C 49.1 °F /  9.5 °C 29.99in /  1015.5hPa WNW 5.0mph /  8km/h 10.0mph /  16.1km/h 70% 0.00in /  0mm
20:34 58.7 °F /  14.8 °C 48.9 °F /  9.4 °C 29.99in /  1015.5hPa WSW 3.0mph /  4.8km/h 10.0mph /  16.1km/h 70% 0.00in /  0mm
20:39 58.6 °F /  14.8 °C 49.2 °F /  9.6 °C 29.99in /  1015.5hPa SW 3.0mph /  4.8km/h 7.0mph /  11.3km/h 71% 0.00in /  0mm
20:44 58.7 °F /  14.8 °C 49.3 °F /  9.6 °C 29.99in /  1015.5hPa WSW 4.0mph /  6.4km/h 10.0mph /  16.1km/h 71% 0.00in /  0mm
20:49 58.6 °F /  14.8 °C 49.6 °F /  9.8 °C 29.99in /  1015.5hPa WSW 4.0mph /  6.4km/h 10.0mph /  16.1km/h 72% 0.00in /  0mm
20:54 58.5 °F /  14.7 °C 49.5 °F /  9.7 °C 29.99in /  1015.5hPa WSW 3.0mph /  4.8km/h 8.0mph /  12.9km/h 72% 0.00in /  0mm
20:59 58.3 °F /  14.6 °C 49.7 °F /  9.8 °C 29.99in /  1015.5hPa WSW 3.0mph /  4.8km/h 8.0mph /  12.9km/h 73% 0.00in /  0mm
21:04 58.2 °F /  14.6 °C 49.6 °F /  9.8 °C 29.99in /  1015.5hPa WSW 3.0mph /  4.8km/h 5.0mph /  8km/h 73% 0.00in /  0mm
21:09 57.9 °F /  14.4 °C 49.3 °F /  9.6 °C 29.99in /  1015.5hPa WSW 2.0mph /  3.2km/h 5.0mph /  8km/h 73% 0.00in /  0mm
21:14 57.7 °F /  14.3 °C 49.5 °F /  9.7 °C 29.99in /  1015.5hPa WSW 1.0mph /  1.6km/h 3.0mph /  4.8km/h 74% 0.00in /  0mm
21:19 57.4 °F /  14.1 °C 49.2 °F /  9.6 °C 29.99in /  1015.5hPa WSW 1.0mph /  1.6km/h 3.0mph /  4.8km/h 74% 0.00in /  0mm
21:24 57.2 °F /  14 °C 49.3 °F /  9.6 °C 29.99in /  1015.5hPa Calm   3.0mph /  4.8km/h 75% 0.00in /  0mm
21:29 57.2 °F /  14 °C 49.3 °F /  9.6 °C 29.99in /  1015.5hPa SW 2.0mph /  3.2km/h 4.0mph /  6.4km/h 75% 0.00in /  0mm
21:34 57.1 °F /  13.9 °C 49.2 °F /  9.6 °C 29.99in /  1015.5hPa WSW 1.0mph /  1.6km/h 3.0mph /  4.8km/h 75% 0.00in /  0mm
21:39 57.1 °F /  13.9 °C 49.2 °F /  9.6 °C 29.99in /  1015.5hPa WSW 2.0mph /  3.2km/h 4.0mph /  6.4km/h 75% 0.00in /  0mm
21:44 57.2 °F /  14 °C 49.3 °F /  9.6 °C 29.99in /  1015.5hPa WNW 1.0mph /  1.6km/h 4.0mph /  6.4km/h 75% 0.00in /  0mm
21:49 57.3 °F /  14.1 °C 49.4 °F /  9.7 °C 30.00in /  1015.8hPa WNW 2.0mph /  3.2km/h 3.0mph /  4.8km/h 75% 0.00in /  0mm
21:54 57.3 °F /  14.1 °C 49.4 °F /  9.7 °C 30.00in /  1015.8hPa WNW 1.0mph /  1.6km/h 3.0mph /  4.8km/h 75% 0.00in /  0mm
21:59 57.1 °F /  13.9 °C 49.2 °F /  9.6 °C 29.99in /  1015.5hPa WNW 1.0mph /  1.6km/h 3.0mph /  4.8km/h 75% 0.00in /  0mm
22:04 56.8 °F /  13.8 °C 49.0 °F /  9.4 °C 29.99in /  1015.5hPa Calm   2.0mph /  3.2km/h 75% 0.00in /  0mm
22:09 56.6 °F /  13.7 °C 48.8 °F /  9.3 °C 29.99in /  1015.5hPa Calm   2.0mph /  3.2km/h 75% 0.00in /  0mm
22:14 56.4 °F /  13.6 °C 48.6 °F /  9.2 °C 29.99in /  1015.5hPa Calm     75% 0.00in /  0mm
22:19 56.2 °F /  13.4 °C 48.7 °F /  9.3 °C 29.99in /  1015.5hPa Calm     76% 0.00in /  0mm
22:24 56.0 °F /  13.3 °C 48.5 °F /  9.2 °C 30.00in /  1015.8hPa Calm     76% 0.00in /  0mm
22:29 55.8 °F /  13.2 °C 48.3 °F /  9.1 °C 30.00in /  1015.8hPa Calm     76% 0.00in /  0mm
22:34 55.7 °F /  13.2 °C 47.9 °F /  8.8 °C 30.00in /  1015.8hPa Calm     75% 0.00in /  0mm
22:39 55.4 °F /  13 °C 48.0 °F /  8.9 °C 30.00in /  1015.8hPa Calm     76% 0.00in /  0mm
22:44 55.3 °F /  12.9 °C 47.9 °F /  8.8 °C 29.99in /  1015.5hPa Calm     76% 0.00in /  0mm
22:49 55.1 °F /  12.8 °C 47.7 °F /  8.7 °C 30.00in /  1015.8hPa Calm     76% 0.00in /  0mm
22:54 55.1 °F /  12.8 °C 47.7 °F /  8.7 °C 30.00in /  1015.8hPa Calm     76% 0.00in /  0mm
22:59 54.9 °F /  12.7 °C 47.8 °F /  8.8 °C 29.99in /  1015.5hPa Calm     77% 0.00in /  0mm
23:04 54.9 °F /  12.7 °C 47.8 °F /  8.8 °C 29.99in /  1015.5hPa Calm     77% 0.00in /  0mm
23:09 54.8 °F /  12.7 °C 47.7 °F /  8.7 °C 29.99in /  1015.5hPa Calm     77% 0.00in /  0mm
23:14 54.8 °F /  12.7 °C 47.7 °F /  8.7 °C 29.99in /  1015.5hPa Calm     77% 0.00in /  0mm
23:19 54.6 °F /  12.6 °C 47.5 °F /  8.6 °C 29.99in /  1015.5hPa Calm     77% 0.00in /  0mm
23:24 54.5 °F /  12.5 °C 47.4 °F /  8.6 °C 29.99in /  1015.5hPa Calm     77% 0.00in /  0mm
23:29 54.6 °F /  12.6 °C 47.5 °F /  8.6 °C 29.99in /  1015.5hPa Calm     77% 0.00in /  0mm
23:34 54.4 °F /  12.4 °C 47.3 °F /  8.5 °C 29.99in /  1015.5hPa Calm     77% 0.00in /  0mm
23:39 54.4 °F /  12.4 °C 47.3 °F /  8.5 °C 29.99in /  1015.5hPa Calm     77% 0.00in /  0mm
23:44 54.4 °F /  12.4 °C 47.0 °F /  8.3 °C 29.99in /  1015.5hPa Calm     76% 0.00in /  0mm
23:49 54.2 °F /  12.3 °C 46.8 °F /  8.2 °C 29.99in /  1015.5hPa Calm     76% 0.00in /  0mm
23:54 53.9 °F /  12.2 °C 46.9 °F /  8.3 °C 29.99in /  1015.5hPa Calm     77% 0.00in /  0mm
23:59 53.8 °F /  12.1 °C 46.8 °F /  8.2 °C 29.99in /  1015.5hPa Calm     77% 0.00in /  0mm
Buffalo, New York, USA
Compliments of Weather Underground - 2.5 mb